Time;durP1;ratioP1;P1;durP2;ratioP2;P2;SDS_P1;SDS_P2;PMS_P1;PMS_P2;Temp;Humidity;BMP_temperature;BMP_pressure;BME280_temperature;BME280_humidity;BME280_pressure;Samples;Min_cycle;Max_cycle;Signal;HPM_P1;HPM_P2
2022/09/02 00:00:33;;;;;;;3.00;0.80;;;12.70;81.20;;;;;;4911097;29;20122;-68
2022/09/02 00:02:59;;;;;;;0.60;0.60;;;12.70;81.30;;;;;;4903884;29;20092;-68
2022/09/02 00:05:24;;;;;;;1.88;0.77;;;12.60;81.50;;;;;;4908866;29;20024;-68
2022/09/02 00:07:50;;;;;;;1.23;0.65;;;12.60;81.70;;;;;;4916340;29;20051;-68
2022/09/02 00:10:15;;;;;;;2.42;0.75;;;12.60;81.60;;;;;;4916206;29;20181;-68
2022/09/02 00:12:41;;;;;;;1.75;0.80;;;12.60;81.80;;;;;;4914443;29;20302;-68
2022/09/02 00:15:07;;;;;;;3.42;0.70;;;12.50;81.90;;;;;;4916143;29;20041;-68
2022/09/02 00:17:33;;;;;;;2.22;1.00;;;12.50;82.00;;;;;;4912518;29;20051;-68
2022/09/02 00:19:58;;;;;;;2.17;1.02;;;12.50;82.40;;;;;;4899545;29;20048;-68
2022/09/02 00:22:24;;;;;;;1.27;0.80;;;12.40;82.50;;;;;;4897496;29;20112;-68
2022/09/02 00:24:49;;;;;;;2.67;0.80;;;12.40;82.40;;;;;;4896930;29;20452;-68
2022/09/02 00:27:15;;;;;;;1.10;0.90;;;12.40;82.70;;;;;;4904109;29;20369;-68
2022/09/02 00:29:40;;;;;;;1.65;1.15;;;12.40;82.70;;;;;;4916302;29;20027;-68
2022/09/02 00:32:06;;;;;;;0.77;0.60;;;12.30;82.70;;;;;;4913553;29;20032;-68
2022/09/02 00:34:32;;;;;;;2.35;1.00;;;12.30;82.70;;;;;;4896809;29;20119;-68
2022/09/02 00:36:57;;;;;;;1.85;0.88;;;12.30;83.30;;;;;;4895278;29;20021;-68
2022/09/02 00:39:23;;;;;;;3.10;0.80;;;12.20;83.10;;;;;;4896110;29;20405;-68
2022/09/02 00:41:49;;;;;;;4.60;0.80;;;12.20;83.30;;;;;;4920016;29;20074;-68
2022/09/02 00:44:17;;;;;;;1.73;0.90;;;12.20;83.50;;;;;;4917334;29;20467;-68
2022/09/02 00:46:43;;;;;;;3.63;0.82;;;12.10;83.50;;;;;;4917847;29;20099;-68
2022/09/02 00:49:16;;;;;;;1.10;0.80;;;12.10;83.60;;;;;;4906853;29;21996;-69
2022/09/02 00:51:43;;;;;;;1.13;0.82;;;12.10;83.90;;;;;;4908213;29;20505;-70
2022/09/02 00:54:11;;;;;;;0.70;0.70;;;12.10;84.10;;;;;;4916402;29;20127;-68
2022/09/02 00:56:40;;;;;;;1.40;0.90;;;12.00;84.10;;;;;;4909671;29;20389;-70
2022/09/02 00:59:07;;;;;;;1.80;0.80;;;12.00;84.40;;;;;;4905901;29;20111;-68
2022/09/02 01:01:33;;;;;;;1.38;0.77;;;12.00;84.40;;;;;;4911178;29;20128;-68
2022/09/02 01:03:58;;;;;;;1.83;0.80;;;12.00;84.40;;;;;;4908033;29;20102;-70
2022/09/02 01:06:29;;;;;;;4.15;0.90;;;12.00;84.40;;;;;;4908270;29;20110;-69
2022/09/02 01:09:01;;;;;;;1.50;0.80;;;11.90;84.50;;;;;;4911187;29;20247;-70
2022/09/02 01:11:36;;;;;;;0.70;0.70;;;11.90;84.60;;;;;;4912887;29;20032;-69
2022/09/02 01:14:02;;;;;;;1.85;0.90;;;11.90;84.90;;;;;;4914637;29;20384;-68
2022/09/02 01:16:38;;;;;;;1.20;0.82;;;11.90;85.00;;;;;;4912999;29;20039;-68
2022/09/02 01:19:14;;;;;;;4.30;0.90;;;11.80;85.10;;;;;;4911515;29;20075;-69
2022/09/02 01:21:46;;;;;;;1.65;0.90;;;11.80;85.40;;;;;;4910352;29;20055;-69
2022/09/02 01:24:12;;;;;;;2.22;1.00;;;11.80;85.40;;;;;;4914547;29;20412;-69
2022/09/02 01:26:38;;;;;;;1.73;0.80;;;11.80;85.40;;;;;;4910094;29;20024;-70
2022/09/02 01:29:04;;;;;;;2.42;0.90;;;11.80;86.00;;;;;;4910965;29;20035;-68
2022/09/02 01:31:29;;;;;;;1.55;0.93;;;11.80;85.70;;;;;;4905665;29;20049;-68
2022/09/02 01:33:55;;;;;;;1.85;1.00;;;11.70;85.70;;;;;;4914643;29;20464;-70
2022/09/02 01:36:21;;;;;;;0.82;0.80;;;11.70;85.90;;;;;;4909221;29;20016;-68
2022/09/02 01:38:46;;;;;;;1.63;0.70;;;11.70;85.80;;;;;;4907670;29;20041;-69
2022/09/02 01:41:12;;;;;;;1.55;1.00;;;11.70;86.00;;;;;;4904001;29;20056;-68
2022/09/02 01:43:37;;;;;;;1.25;0.80;;;11.60;86.30;;;;;;4904953;29;20054;-70
2022/09/02 01:46:03;;;;;;;1.33;0.95;;;11.60;86.50;;;;;;4910218;29;20119;-69
2022/09/02 01:48:29;;;;;;;2.15;1.10;;;11.60;86.30;;;;;;4912317;29;20188;-69
2022/09/02 01:50:58;;;;;;;3.47;0.98;;;11.60;86.60;;;;;;4908467;29;20032;-68
2022/09/02 01:53:24;;;;;;;0.90;0.75;;;11.50;86.50;;;;;;4910243;29;20363;-68
2022/09/02 01:55:49;;;;;;;2.80;1.10;;;11.50;86.80;;;;;;4910940;29;20047;-69
2022/09/02 01:58:15;;;;;;;1.35;0.98;;;11.50;86.90;;;;;;4909975;29;20024;-69
2022/09/02 02:00:41;;;;;;;1.38;0.80;;;11.40;87.00;;;;;;4908428;29;20020;-69
2022/09/02 02:03:06;;;;;;;4.00;1.05;;;11.40;87.00;;;;;;4914926;29;20456;-68
2022/09/02 02:05:32;;;;;;;4.15;1.20;;;11.40;87.10;;;;;;4913573;29;20039;-68
2022/09/02 02:07:59;;;;;;;1.10;0.85;;;11.40;87.30;;;;;;4911025;29;20378;-69
2022/09/02 02:10:24;;;;;;;1.23;0.95;;;11.30;87.20;;;;;;4908349;29;20448;-69
2022/09/02 02:12:50;;;;;;;2.08;1.02;;;11.30;87.10;;;;;;4909945;29;20048;-68
2022/09/02 02:15:18;;;;;;;2.05;1.00;;;11.30;87.10;;;;;;4909063;29;20041;-70
2022/09/02 02:17:43;;;;;;;2.67;1.00;;;11.20;87.30;;;;;;4914724;29;20031;-69
2022/09/02 02:20:13;;;;;;;6.18;1.02;;;11.20;87.70;;;;;;4913938;29;20020;-68
2022/09/02 02:22:40;;;;;;;2.00;1.20;;;11.10;87.70;;;;;;4911671;29;20457;-70
2022/09/02 02:25:06;;;;;;;1.58;0.85;;;11.10;87.80;;;;;;4911880;29;20039;-70
2022/09/02 02:27:32;;;;;;;2.15;1.10;;;11.00;88.00;;;;;;4911080;29;20104;-68
2022/09/02 02:29:58;;;;;;;1.52;1.20;;;11.00;88.10;;;;;;4910573;29;20040;-70
2022/09/02 02:32:24;;;;;;;2.55;1.17;;;11.10;88.40;;;;;;4910894;29;20051;-70
2022/09/02 02:34:50;;;;;;;1.40;1.10;;;11.10;88.20;;;;;;4910759;29;20322;-68
2022/09/02 02:37:15;;;;;;;4.68;1.00;;;11.00;88.10;;;;;;4913495;29;20043;-68
2022/09/02 02:39:42;;;;;;;4.00;1.10;;;11.10;88.40;;;;;;4912369;29;20043;-68
2022/09/02 02:42:12;;;;;;;1.10;1.00;;;11.10;88.40;;;;;;4908520;29;20020;-69
2022/09/02 02:44:39;;;;;;;6.30;1.23;;;11.10;88.50;;;;;;4914687;29;20031;-68
2022/09/02 02:47:05;;;;;;;1.73;1.20;;;11.00;88.40;;;;;;4902759;29;20020;-70
2022/09/02 02:49:35;;;;;;;1.80;1.08;;;11.00;88.70;;;;;;4912611;29;20037;-69
2022/09/02 02:52:00;;;;;;;2.30;1.10;;;11.00;88.70;;;;;;4912286;29;20079;-69
2022/09/02 02:54:26;;;;;;;3.25;1.40;;;11.00;88.70;;;;;;4906470;29;20107;-68
2022/09/02 02:56:51;;;;;;;2.22;1.10;;;11.00;88.90;;;;;;4910308;29;20056;-68
2022/09/02 02:59:16;;;;;;;2.08;1.35;;;11.00;88.90;;;;;;4900780;29;20057;-69
2022/09/02 03:01:42;;;;;;;1.70;1.20;;;11.00;89.20;;;;;;4902152;29;20079;-69
2022/09/02 03:04:07;;;;;;;3.88;1.33;;;11.00;89.10;;;;;;4909235;29;20028;-70
2022/09/02 03:06:34;;;;;;;2.88;1.05;;;10.90;89.10;;;;;;4908345;29;20040;-69
2022/09/02 03:09:00;;;;;;;4.55;1.40;;;10.90;89.30;;;;;;4908913;29;20028;-69
2022/09/02 03:11:27;;;;;;;1.85;1.30;;;11.00;89.50;;;;;;4902811;29;20107;-68
2022/09/02 03:13:53;;;;;;;1.77;1.30;;;10.80;89.20;;;;;;4909368;29;20406;-69
2022/09/02 03:16:18;;;;;;;1.67;1.30;;;10.90;89.50;;;;;;4909261;29;20047;-68
2022/09/02 03:18:46;;;;;;;3.33;1.35;;;10.90;89.60;;;;;;4909029;29;20032;-69
2022/09/02 03:21:14;;;;;;;3.25;1.40;;;10.90;89.50;;;;;;4896448;29;20040;-68
2022/09/02 03:23:40;;;;;;;2.03;1.20;;;10.90;89.60;;;;;;4907504;29;20024;-69
2022/09/02 03:26:15;;;;;;;2.03;1.20;;;10.80;89.80;;;;;;4909785;29;20036;-68
2022/09/02 03:28:41;;;;;;;2.08;1.30;;;10.80;89.90;;;;;;4910930;29;20044;-69
2022/09/02 03:31:11;;;;;;;1.92;1.20;;;10.70;89.90;;;;;;4906274;29;20038;-69
2022/09/02 03:33:37;;;;;;;1.88;1.48;;;10.70;90.10;;;;;;4908959;29;20428;-68
2022/09/02 03:36:02;;;;;;;2.13;1.58;;;10.70;90.00;;;;;;4907530;29;20039;-69
2022/09/02 03:38:28;;;;;;;3.30;1.40;;;10.70;90.20;;;;;;4906770;29;20032;-69
2022/09/02 03:40:53;;;;;;;1.95;1.25;;;10.60;90.20;;;;;;4902070;29;20032;-68
2022/09/02 03:43:19;;;;;;;1.98;1.67;;;10.60;90.20;;;;;;4912483;29;20472;-69
2022/09/02 03:45:45;;;;;;;4.65;1.77;;;10.60;90.50;;;;;;4905431;29;20036;-69
2022/09/02 03:48:11;;;;;;;2.05;1.40;;;10.60;90.70;;;;;;4905006;29;20060;-70
2022/09/02 03:50:40;;;;;;;2.85;1.38;;;10.60;90.60;;;;;;4907776;29;20036;-69
2022/09/02 03:53:06;;;;;;;1.88;1.20;;;10.50;90.80;;;;;;4903596;29;20059;-68
2022/09/02 03:55:32;;;;;;;1.77;1.45;;;10.50;90.70;;;;;;4916587;29;20120;-68
2022/09/02 03:57:58;;;;;;;2.20;1.58;;;10.40;90.80;;;;;;4898849;29;20163;-68
2022/09/02 04:00:28;;;;;;;3.75;1.77;;;10.40;91.10;;;;;;4908349;29;20052;-68
2022/09/02 04:02:54;;;;;;;4.57;1.73;;;10.40;91.20;;;;;;4897273;29;20071;-68
2022/09/02 04:05:21;;;;;;;2.22;1.50;;;10.30;91.10;;;;;;4901613;29;20777;-68
2022/09/02 04:07:47;;;;;;;3.85;1.55;;;10.30;91.20;;;;;;4913035;29;20079;-68
2022/09/02 04:10:13;;;;;;;2.42;1.38;;;10.30;91.40;;;;;;4906092;29;20115;-68
2022/09/02 04:12:39;;;;;;;2.53;1.83;;;10.30;91.50;;;;;;4899902;29;20072;-68
2022/09/02 04:15:07;;;;;;;2.88;1.75;;;10.20;91.70;;;;;;4895543;29;20068;-68
2022/09/02 04:17:35;;;;;;;3.33;1.90;;;10.20;91.70;;;;;;4912676;29;20249;-69
2022/09/02 04:20:01;;;;;;;2.50;1.70;;;10.20;91.70;;;;;;4908971;29;20028;-70
2022/09/02 04:22:27;;;;;;;2.20;1.60;;;10.20;91.90;;;;;;4903130;29;20453;-69
2022/09/02 04:24:52;;;;;;;2.58;1.60;;;10.20;91.90;;;;;;4898405;29;20041;-69
2022/09/02 04:27:18;;;;;;;2.95;1.60;;;10.20;92.10;;;;;;4900948;29;20123;-69
2022/09/02 04:29:43;;;;;;;2.45;1.77;;;10.20;92.20;;;;;;4902521;29;20035;-68
2022/09/02 04:32:09;;;;;;;5.57;1.88;;;10.10;92.20;;;;;;4909636;29;20051;-68
2022/09/02 04:34:34;;;;;;;7.53;1.80;;;10.10;92.20;;;;;;4908380;29;20033;-68
2022/09/02 04:37:00;;;;;;;3.17;1.75;;;10.10;92.30;;;;;;4901794;29;20450;-68
2022/09/02 04:39:25;;;;;;;3.42;1.92;;;10.10;92.20;;;;;;4909025;29;20103;-69
2022/09/02 04:41:52;;;;;;;2.50;1.83;;;10.10;92.40;;;;;;4905475;29;20050;-71
2022/09/02 04:44:18;;;;;;;3.13;1.60;;;10.10;92.60;;;;;;4900505;29;20035;-69
2022/09/02 04:46:43;;;;;;;2.65;1.90;;;10.10;92.50;;;;;;4898284;29;20092;-68
2022/09/02 04:49:09;;;;;;;2.55;1.77;;;10.10;92.50;;;;;;4903465;29;20040;-69
2022/09/02 04:51:36;;;;;;;5.65;2.05;;;10.10;92.60;;;;;;4900438;29;20728;-70
2022/09/02 04:54:01;;;;;;;4.13;1.95;;;10.10;92.70;;;;;;4905803;29;20024;-68
2022/09/02 04:56:29;;;;;;;3.63;1.90;;;10.10;92.70;;;;;;4901466;29;20466;-68
2022/09/02 04:58:54;;;;;;;4.03;2.03;;;10.20;92.70;;;;;;4899567;29;20087;-70
2022/09/02 05:01:26;;;;;;;3.40;2.00;;;10.20;92.60;;;;;;4903434;29;20059;-69
2022/09/02 05:03:52;;;;;;;3.63;2.13;;;10.10;92.70;;;;;;4894541;29;20039;-68
2022/09/02 05:06:21;;;;;;;4.03;2.13;;;10.20;92.80;;;;;;4893709;29;20029;-69
2022/09/02 05:08:47;;;;;;;2.92;2.03;;;10.30;92.90;;;;;;4901930;29;20364;-69
2022/09/02 05:11:19;;;;;;;3.83;1.77;;;10.30;92.90;;;;;;4910075;29;20028;-69
2022/09/02 05:13:50;;;;;;;4.20;1.90;;;10.30;92.80;;;;;;4900333;29;20055;-69
2022/09/02 05:16:22;;;;;;;4.25;2.50;;;10.40;92.60;;;;;;4907178;29;20433;-69
2022/09/02 05:18:48;;;;;;;7.18;2.20;;;10.40;92.60;;;;;;4907974;29;20028;-69
2022/09/02 05:21:14;;;;;;;3.97;1.42;;;10.40;92.50;;;;;;4899000;29;20032;-69
2022/09/02 05:23:40;;;;;;;4.43;1.92;;;10.50;92.40;;;;;;4907669;29;20028;-69
2022/09/02 05:26:06;;;;;;;3.40;1.83;;;10.50;92.40;;;;;;4909564;29;20032;-69
2022/09/02 05:28:33;;;;;;;3.38;2.00;;;10.60;92.40;;;;;;4903896;29;20060;-69
2022/09/02 05:31:04;;;;;;;4.07;1.52;;;10.70;92.30;;;;;;4895698;29;20067;-69
2022/09/02 05:33:30;;;;;;;2.72;1.48;;;10.70;92.20;;;;;;4908682;29;20036;-68
2022/09/02 05:35:56;;;;;;;3.90;1.80;;;10.80;92.10;;;;;;4905755;29;20051;-69
2022/09/02 05:38:21;;;;;;;4.00;1.95;;;10.90;92.00;;;;;;4903496;29;20036;-69
2022/09/02 05:40:47;;;;;;;3.97;1.60;;;11.00;91.90;;;;;;4907882;29;20104;-70
2022/09/02 05:43:12;;;;;;;3.92;1.80;;;11.00;91.60;;;;;;4914065;29;20031;-69
2022/09/02 05:45:38;;;;;;;3.63;1.65;;;11.10;91.50;;;;;;4913112;29;20450;-69
2022/09/02 05:49:04;;;;;;;4.22;1.75;;;11.20;91.30;;;;;;4909356;29;20044;-68
2022/09/02 05:50:49;;;;;;;2.38;1.55;;;11.30;91.10;;;;;;4912892;29;20040;-69
2022/09/02 05:53:17;;;;;;;3.45;1.60;;;11.40;90.80;;;;;;4905778;29;20100;-70
2022/09/02 05:55:43;;;;;;;2.20;1.58;;;11.50;90.50;;;;;;4911980;29;20071;-69
2022/09/02 05:58:08;;;;;;;3.22;1.77;;;11.50;90.30;;;;;;4914112;29;20187;-69
2022/09/02 06:00:34;;;;;;;2.17;1.50;;;11.70;90.00;;;;;;4914088;29;20463;-69
2022/09/02 06:02:59;;;;;;;3.95;1.67;;;11.70;89.70;;;;;;4913677;29;20040;-69
2022/09/02 06:05:26;;;;;;;2.28;1.50;;;11.80;89.60;;;;;;4913630;29;20368;-70
2022/09/02 06:07:51;;;;;;;2.25;1.50;;;11.90;89.30;;;;;;4912063;29;20032;-69
2022/09/02 06:10:17;;;;;;;2.72;1.60;;;12.00;88.80;;;;;;4906025;29;20384;-69
2022/09/02 06:12:43;;;;;;;2.58;1.45;;;12.10;88.50;;;;;;4897133;29;20112;-70
2022/09/02 06:15:09;;;;;;;1.73;1.20;;;12.20;88.30;;;;;;4913232;29;20479;-70
2022/09/02 06:17:35;;;;;;;3.40;1.70;;;12.30;87.90;;;;;;4915145;29;20104;-69
2022/09/02 06:20:00;;;;;;;2.03;1.30;;;12.50;87.60;;;;;;4906633;29;20047;-70
2022/09/02 06:22:26;;;;;;;3.70;1.88;;;12.50;87.50;;;;;;4915353;29;20409;-69
2022/09/02 06:24:51;;;;;;;2.35;1.60;;;12.60;86.90;;;;;;4907942;29;20032;-69
2022/09/02 06:27:17;;;;;;;3.63;1.75;;;12.70;86.60;;;;;;4904661;29;20028;-69
2022/09/02 06:29:42;;;;;;;3.00;1.55;;;12.70;86.30;;;;;;4898048;29;20060;-69
2022/09/02 06:32:08;;;;;;;2.72;1.52;;;12.90;85.70;;;;;;4903970;29;20067;-69
2022/09/02 06:34:34;;;;;;;1.52;1.25;;;13.00;85.30;;;;;;4913485;29;20067;-69
2022/09/02 06:36:59;;;;;;;5.78;1.65;;;13.10;85.40;;;;;;4914194;29;20036;-69
2022/09/02 06:39:25;;;;;;;2.40;1.50;;;13.10;85.00;;;;;;4911045;29;20028;-70
2022/09/02 06:41:51;;;;;;;2.20;1.13;;;13.20;84.40;;;;;;4905362;29;20447;-70
2022/09/02 06:44:20;;;;;;;3.17;1.08;;;13.30;83.90;;;;;;4895746;29;20382;-69
2022/09/02 06:46:51;;;;;;;1.58;1.02;;;13.40;84.10;;;;;;4899771;29;20322;-69
2022/09/02 06:49:16;;;;;;;;;;;13.50;83.30;;;;;;4899605;29;20545;-70
2022/09/02 06:51:45;;;;;;;3.17;0.90;;;13.60;82.80;;;;;;4909261;29;19983;-70
2022/09/02 06:54:14;;;;;;;1.23;0.90;;;13.70;82.50;;;;;;4905141;29;20020;-69
2022/09/02 06:56:41;;;;;;;1.40;0.88;;;13.90;81.80;;;;;;4911237;29;20126;-70
2022/09/02 06:59:07;;;;;;;2.83;0.85;;;14.00;81.70;;;;;;4910818;29;20123;-69
2022/09/02 07:01:34;;;;;;;3.03;1.10;;;14.10;81.00;;;;;;4906928;29;20028;-69
2022/09/02 07:06:47;;;;;;;1.83;0.90;;;14.30;80.10;;;;;;4895771;29;20120;-70
2022/09/02 07:09:16;;;;;;;2.15;1.30;;;14.30;79.90;;;;;;4900834;29;20520;-69
2022/09/02 07:11:46;;;;;;;1.38;0.88;;;14.50;79.50;;;;;;4904010;29;20040;-70
2022/09/02 07:14:12;;;;;;;2.78;0.95;;;14.50;78.60;;;;;;4913005;29;20083;-70
2022/09/02 07:16:43;;;;;;;1.35;0.80;;;14.60;77.80;;;;;;4911115;29;20405;-70
2022/09/02 07:19:10;;;;;;;1.30;0.90;;;14.70;78.50;;;;;;4895900;29;20033;-69
2022/09/02 07:21:35;;;;;;;1.98;0.80;;;14.80;77.70;;;;;;4900703;29;20028;-69
2022/09/02 07:24:01;;;;;;;1.80;0.93;;;14.80;77.80;;;;;;4895667;29;20028;-70
2022/09/02 07:26:28;;;;;;;3.13;0.90;;;14.80;77.50;;;;;;4909233;29;20376;-69
2022/09/02 07:28:54;;;;;;;1.73;0.90;;;14.90;77.70;;;;;;4913744;29;20420;-69
2022/09/02 07:31:22;;;;;;;1.35;0.80;;;15.00;76.90;;;;;;4911433;29;20151;-70
2022/09/02 07:33:47;;;;;;;0.82;0.60;;;15.20;76.50;;;;;;4901563;29;20107;-70
2022/09/02 07:36:13;;;;;;;3.42;0.90;;;15.30;76.40;;;;;;4901899;29;20422;-70
2022/09/02 07:38:40;;;;;;;2.47;0.75;;;15.40;75.00;;;;;;4902522;29;20415;-70
2022/09/02 07:41:08;;;;;;;1.75;0.80;;;15.50;75.50;;;;;;4910562;29;20127;-69
2022/09/02 07:43:35;;;;;;;1.13;0.70;;;15.60;75.40;;;;;;4912426;29;20036;-69
2022/09/02 07:46:02;;;;;;;2.03;0.77;;;15.80;74.70;;;;;;4899757;29;20033;-69
2022/09/02 07:48:29;;;;;;;1.35;0.68;;;15.80;75.10;;;;;;4900224;29;20435;-70
2022/09/02 07:50:55;;;;;;;1.45;1.05;;;16.00;74.80;;;;;;4911208;29;20064;-70
2022/09/02 07:53:21;;;;;;;2.13;0.77;;;16.10;73.90;;;;;;4904970;29;20036;-69
2022/09/02 07:55:47;;;;;;;1.30;0.88;;;16.20;73.60;;;;;;4901014;29;20036;-70
2022/09/02 07:58:14;;;;;;;2.95;0.70;;;16.40;73.10;;;;;;4909700;29;20087;-70
2022/09/02 08:00:40;;;;;;;1.02;0.55;;;16.60;72.30;;;;;;4902637;29;20089;-70
2022/09/02 08:03:08;;;;;;;1.17;0.75;;;16.80;70.60;;;;;;4904807;29;20031;-70
2022/09/02 08:05:34;;;;;;;0.88;0.80;;;17.00;70.20;;;;;;4904221;29;20032;-69
2022/09/02 08:08:00;;;;;;;0.70;0.70;;;17.10;69.00;;;;;;4904340;29;20139;-70
2022/09/02 08:10:27;;;;;;;8.43;0.80;;;17.40;69.00;;;;;;4903657;29;20246;-69
2022/09/02 08:12:53;;;;;;;0.73;0.60;;;17.60;67.80;;;;;;4907944;29;20035;-70
2022/09/02 08:15:21;;;;;;;1.30;0.70;;;17.60;67.10;;;;;;4911307;29;20036;-70
2022/09/02 08:17:48;;;;;;;1.40;0.70;;;18.00;67.80;;;;;;4908885;29;20040;-70
2022/09/02 08:20:16;;;;;;;0.98;0.50;;;18.10;66.10;;;;;;4909031;29;20124;-70
2022/09/02 08:22:41;;;;;;;2.55;0.75;;;18.20;65.80;;;;;;4910323;29;20039;-71
2022/09/02 08:25:08;;;;;;;1.67;0.60;;;18.50;64.80;;;;;;4900085;29;20082;-70
2022/09/02 08:27:34;;;;;;;3.05;0.60;;;18.70;65.60;;;;;;4903993;29;20043;-69
2022/09/02 08:30:00;;;;;;;0.40;0.40;;;18.90;62.70;;;;;;4899828;29;20032;-71
2022/09/02 08:32:27;;;;;;;1.33;0.60;;;19.00;62.10;;;;;;4909046;29;20390;-69
2022/09/02 08:34:52;;;;;;;2.70;0.65;;;18.90;62.30;;;;;;4913048;29;20046;-70
2022/09/02 08:37:18;;;;;;;0.50;0.50;;;19.00;62.30;;;;;;4909307;29;20032;-70
2022/09/02 08:39:46;;;;;;;1.67;0.70;;;19.30;62.80;;;;;;4906722;29;20032;-70
2022/09/02 08:42:24;;;;;;;1.33;0.50;;;19.10;60.00;;;;;;4907866;29;20043;-70
2022/09/02 08:44:54;;;;;;;1.98;0.80;;;19.10;59.00;;;;;;4902671;29;20044;-69
2022/09/02 08:47:24;;;;;;;3.05;0.60;;;19.20;59.60;;;;;;4901048;29;20457;-70
2022/09/02 08:49:54;;;;;;;1.63;0.77;;;19.60;60.10;;;;;;4902140;29;20032;-70
2022/09/02 08:52:55;;;;;;;3.25;0.82;;;19.70;58.70;;;;;;4911299;29;20047;-70
2022/09/02 08:55:27;;;;;;;2.05;0.55;;;19.80;58.70;;;;;;4897700;29;20131;-70
2022/09/02 08:57:56;;;;;;;1.00;0.63;;;20.10;57.60;;;;;;4903866;29;20084;-70
2022/09/02 09:00:22;;;;;;;1.85;0.80;;;20.10;56.60;;;;;;4898370;29;20063;-70
2022/09/02 09:03:00;;;;;;;1.92;0.55;;;20.20;57.70;;;;;;4911879;29;20020;-70
2022/09/02 09:06:00;;;;;;;1.15;0.60;;;20.70;56.60;;;;;;4912430;29;20028;-70
2022/09/02 09:08:51;;;;;;;1.10;0.60;;;20.90;57.30;;;;;;4904929;29;20066;-70
2022/09/02 09:11:32;;;;;;;1.58;1.15;;;20.90;55.70;;;;;;4914289;29;20340;-70
2022/09/02 09:14:10;;;;;;;1.35;0.63;;;20.90;55.70;;;;;;4911629;29;20080;-71
2022/09/02 09:16:51;;;;;;;0.68;0.43;;;20.80;55.00;;;;;;4912098;29;20352;-70
2022/09/02 09:19:37;;;;;;;1.38;0.50;;;21.30;55.10;;;;;;4909120;29;20028;-70
2022/09/02 09:22:04;;;;;;;1.38;1.02;;;21.30;53.70;;;;;;4908542;29;20054;-70
2022/09/02 09:24:36;;;;;;;2.58;0.68;;;21.60;54.80;;;;;;4910841;29;20078;-70
2022/09/02 09:27:06;;;;;;;2.22;0.52;;;21.50;53.30;;;;;;4906923;29;20028;-70
2022/09/02 09:29:33;;;;;;;4.60;0.70;;;21.10;54.20;;;;;;4909948;29;20133;-70
2022/09/02 09:31:59;;;;;;;0.57;0.50;;;21.30;53.80;;;;;;4904648;29;20424;-70
2022/09/02 09:34:56;;;;;;;1.90;0.55;;;21.80;53.70;;;;;;4902409;29;20024;-70
2022/09/02 09:37:42;;;;;;;1.08;0.40;;;21.30;52.20;;;;;;4906703;29;20027;-70
2022/09/02 09:40:20;;;;;;;1.58;0.70;;;21.80;52.60;;;;;;4911417;29;20082;-70
2022/09/02 09:42:47;;;;;;;5.20;0.82;;;21.50;51.60;;;;;;4902598;29;20368;-72
2022/09/02 09:45:24;;;;;;;1.60;0.80;;;21.70;51.60;;;;;;4914336;29;20052;-70
2022/09/02 09:48:14;;;;;;;1.63;0.47;;;21.90;51.80;;;;;;4909750;29;20078;-70
2022/09/02 09:50:40;;;;;;;2.37;0.43;;;22.00;51.20;;;;;;4917460;29;20028;-70
2022/09/02 09:53:38;;;;;;;1.27;0.57;;;22.40;51.00;;;;;;4902922;29;20127;-70
2022/09/02 09:56:12;;;;;;;2.55;0.50;;;22.40;50.80;;;;;;4884421;29;20104;-69
2022/09/02 09:58:37;;;;;;;1.58;0.70;;;22.40;48.80;;;;;;4911147;29;20054;-69
2022/09/02 10:01:33;;;;;;;1.05;0.55;;;22.70;49.80;;;;;;4912840;29;20028;-70
2022/09/02 10:04:12;;;;;;;1.98;0.60;;;22.60;47.80;;;;;;4914536;29;20027;-69
2022/09/02 10:06:42;;;;;;;3.40;0.73;;;22.90;48.70;;;;;;4908143;29;20108;-70
2022/09/02 10:09:17;;;;;;;1.07;0.47;;;23.40;48.20;;;;;;4908074;29;20453;-70
2022/09/02 10:12:10;;;;;;;1.25;0.50;;;23.50;47.90;;;;;;4912606;29;20043;-71
2022/09/02 10:14:46;;;;;;;1.60;0.50;;;23.60;47.00;;;;;;4909714;29;20028;-70
2022/09/02 10:17:26;;;;;;;1.70;0.52;;;23.90;46.00;;;;;;4907612;29;20066;-71
2022/09/02 10:20:13;;;;;;;0.95;0.50;;;23.70;45.70;;;;;;4912168;29;20475;-70
2022/09/02 10:23:07;;;;;;;2.97;0.70;;;23.80;44.10;;;;;;4912839;29;20102;-71
2022/09/02 10:25:41;;;;;;;2.05;0.70;;;23.70;45.80;;;;;;4899277;29;20060;-72
2022/09/02 10:28:33;;;;;;;0.50;0.50;;;23.60;45.80;;;;;;4898308;29;20118;-70
2022/09/02 10:31:19;;;;;;;2.17;0.57;;;24.00;45.30;;;;;;4906850;29;20080;-70
2022/09/02 10:34:05;;;;;;;3.38;0.50;;;23.80;44.10;;;;;;4909448;29;20119;-71
2022/09/02 10:37:01;;;;;;;1.73;0.63;;;24.00;44.70;;;;;;4898857;29;20050;-70
2022/09/02 10:39:50;;;;;;;1.60;0.65;;;24.10;42.70;;;;;;4909123;29;20424;-70
2022/09/02 10:42:30;;;;;;;1.55;0.70;;;23.10;45.50;;;;;;4904306;29;20024;-69
2022/09/02 10:45:19;;;;;;;2.83;0.70;;;22.90;45.50;;;;;;4895739;29;20041;-71
2022/09/02 10:48:00;;;;;;;1.13;0.50;;;24.00;44.10;;;;;;4911469;29;20032;-71
2022/09/02 10:50:54;;;;;;;3.00;0.65;;;24.60;43.60;;;;;;4885829;29;20044;-70
2022/09/02 10:53:41;;;;;;;6.35;0.77;;;24.70;42.10;;;;;;4897770;29;20395;-71
2022/09/02 10:56:20;;;;;;;1.23;0.60;;;23.90;42.90;;;;;;4905270;29;20032;-70
2022/09/02 10:58:59;;;;;;;0.95;0.68;;;23.70;44.70;;;;;;4906700;29;20049;-71
2022/09/02 11:01:27;;;;;;;0.70;0.50;;;23.70;43.60;;;;;;4895050;29;20088;-70
2022/09/02 11:04:12;;;;;;;0.77;0.50;;;23.00;44.00;;;;;;4906740;29;20096;-70
2022/09/02 11:06:40;;;;;;;1.92;0.60;;;22.90;43.50;;;;;;4907167;29;20115;-70
2022/09/02 11:09:20;;;;;;;2.03;0.55;;;23.20;43.40;;;;;;4905616;29;20107;-70
2022/09/02 11:11:52;;;;;;;1.13;0.35;;;23.50;43.70;;;;;;4913435;29;20130;-70
2022/09/02 11:14:35;;;;;;;2.22;0.70;;;23.20;44.60;;;;;;4913910;29;20218;-70
2022/09/02 11:17:15;;;;;;;1.23;0.55;;;22.70;45.30;;;;;;4905895;29;20025;-70
2022/09/02 11:19:57;;;;;;;1.60;0.53;;;22.50;45.40;;;;;;4903823;29;20024;-70
2022/09/02 11:23:00;;;;;;;1.58;0.50;;;22.30;45.30;;;;;;4911410;29;20083;-69
2022/09/02 11:25:47;;;;;;;3.20;0.77;;;22.80;45.00;;;;;;4901942;29;20024;-70
2022/09/02 11:28:15;;;;;;;0.65;0.50;;;23.00;44.50;;;;;;4908115;29;20028;-70
2022/09/02 11:31:05;;;;;;;2.13;0.70;;;22.80;45.30;;;;;;4895534;29;20024;-70
2022/09/02 11:33:49;;;;;;;2.30;0.80;;;22.50;44.50;;;;;;4885031;29;20048;-70
2022/09/02 11:36:16;;;;;;;1.73;0.60;;;23.10;43.40;;;;;;4896521;29;20358;-70
2022/09/02 11:39:00;;;;;;;1.05;0.50;;;23.00;43.00;;;;;;4901406;29;20452;-70
2022/09/02 11:42:00;;;;;;;2.33;1.00;;;22.90;42.90;;;;;;4914229;29;20441;-70
2022/09/02 11:44:39;;;;;;;3.05;0.70;;;22.60;43.60;;;;;;4913136;29;20333;-71
2022/09/02 11:47:42;;;;;;;3.03;0.70;;;23.80;42.10;;;;;;4911805;29;20028;-70
2022/09/02 11:50:17;;;;;;;2.13;0.50;;;23.70;41.00;;;;;;4910939;29;20035;-70
2022/09/02 11:53:19;;;;;;;1.20;0.70;;;23.60;43.10;;;;;;4905459;29;20044;-70
2022/09/02 11:55:59;;;;;;;1.40;0.60;;;23.40;42.90;;;;;;4910407;29;20063;-70
2022/09/02 11:58:39;;;;;;;1.10;0.50;;;23.50;42.40;;;;;;4913382;29;20477;-70
2022/09/02 12:01:13;;;;;;;0.40;0.40;;;24.00;41.30;;;;;;4909589;29;20036;-71
2022/09/02 12:03:43;;;;;;;0.73;0.55;;;25.60;40.00;;;;;;4894934;29;20425;-71
2022/09/02 12:06:12;;;;;;;2.67;0.50;;;25.50;38.40;;;;;;4907050;29;20028;-71
2022/09/02 12:08:41;;;;;;;1.52;0.63;;;25.60;38.80;;;;;;4901494;29;20728;-70
2022/09/02 12:11:10;;;;;;;1.65;0.70;;;25.50;37.60;;;;;;4908074;29;20119;-70
2022/09/02 12:13:39;;;;;;;2.78;0.50;;;25.10;38.60;;;;;;4913467;29;20353;-70
2022/09/02 12:16:14;;;;;;;1.20;0.50;;;24.60;39.40;;;;;;4909987;29;20052;-70
2022/09/02 12:18:45;;;;;;;0.70;0.45;;;24.00;40.60;;;;;;4913248;29;20028;-70
2022/09/02 12:21:11;;;;;;;;;;;23.90;41.70;;;;;;4906715;29;20473;-70
2022/09/02 12:23:55;;;;;;;1.60;0.55;;;23.40;41.40;;;;;;4902490;29;19933;-70
2022/09/02 12:26:29;;;;;;;0.75;0.52;;;24.00;41.50;;;;;;4906572;29;20051;-69
2022/09/02 12:29:20;;;;;;;3.15;0.70;;;23.90;40.80;;;;;;4905662;29;20020;-70
2022/09/02 12:31:51;;;;;;;1.52;0.70;;;24.20;39.70;;;;;;4910044;29;20123;-70
2022/09/02 12:34:19;;;;;;;2.33;0.70;;;25.00;39.60;;;;;;4911028;29;20044;-70
2022/09/02 12:36:50;;;;;;;1.42;0.60;;;26.20;38.10;;;;;;4909409;29;20032;-71
2022/09/02 12:39:22;;;;;;;1.75;0.57;;;26.50;37.80;;;;;;4913557;29;20030;-70
2022/09/02 12:42:10;;;;;;;1.73;1.10;;;26.00;37.40;;;;;;4901713;29;20036;-71
2022/09/02 12:45:21;;;;;;;1.80;0.88;;;25.80;36.80;;;;;;4903295;29;20453;-70
2022/09/02 12:47:58;;;;;;;2.28;0.93;;;25.10;38.30;;;;;;4914410;29;20517;-70
2022/09/02 12:50:49;;;;;;;3.63;0.80;;;24.30;39.20;;;;;;4898623;29;20130;-70
2022/09/02 12:53:42;;;;;;;1.38;0.80;;;23.60;39.80;;;;;;4916052;29;20036;-70
2022/09/02 12:56:22;;;;;;;1.80;1.02;;;23.50;40.30;;;;;;4911604;29;20508;-69
2022/09/02 12:58:50;;;;;;;1.00;0.73;;;24.40;41.00;;;;;;4898275;29;20511;-71
2022/09/02 13:01:46;;;;;;;1.33;0.68;;;25.30;38.80;;;;;;4907597;29;20028;-71
2022/09/02 13:04:25;;;;;;;1.02;0.52;;;26.40;37.20;;;;;;4914282;29;20036;-70
2022/09/02 13:07:18;;;;;;;1.55;0.60;;;26.40;36.20;;;;;;4910604;29;20051;-71
2022/09/02 13:09:53;;;;;;;1.80;0.70;;;26.80;36.70;;;;;;4899193;29;20037;-71